sensor_id;sensor_type;location;lat;lon;timestamp;pressure;altitude;pressure_sealevel;temperature;humidity
41250;BME280;26984;59.928;30.306;2023-04-09T00:00:24;102442.03;;;4.80;64.38
41250;BME280;26984;59.928;30.306;2023-04-09T00:02:51;102440.34;;;4.79;64.62
41250;BME280;26984;59.928;30.306;2023-04-09T00:05:19;102440.34;;;4.79;64.84
41250;BME280;26984;59.928;30.306;2023-04-09T00:07:46;102438.09;;;4.74;64.67
41250;BME280;26984;59.928;30.306;2023-04-09T00:10:14;102430.19;;;4.73;64.93
41250;BME280;26984;59.928;30.306;2023-04-09T00:12:41;102437.09;;;4.75;64.89
41250;BME280;26984;59.928;30.306;2023-04-09T00:15:09;102432.03;;;4.72;65.18
41250;BME280;26984;59.928;30.306;2023-04-09T00:17:38;102439.44;;;4.69;64.31
41250;BME280;26984;59.928;30.306;2023-04-09T00:20:06;102439.06;;;4.73;64.93
41250;BME280;26984;59.928;30.306;2023-04-09T00:22:34;102444.22;;;4.65;64.33
41250;BME280;26984;59.928;30.306;2023-04-09T00:25:01;102444.78;;;4.59;64.62
41250;BME280;26984;59.928;30.306;2023-04-09T00:27:29;102445.03;;;4.56;64.94
41250;BME280;26984;59.928;30.306;2023-04-09T00:29:56;102441.47;;;4.46;65.05
41250;BME280;26984;59.928;30.306;2023-04-09T00:32:24;102441.47;;;4.46;65.26
41250;BME280;26984;59.928;30.306;2023-04-09T00:34:53;102448.94;;;4.52;64.63
41250;BME280;26984;59.928;30.306;2023-04-09T00:37:20;102441.91;;;4.51;64.41
41250;BME280;26984;59.928;30.306;2023-04-09T00:39:48;102444.72;;;4.49;64.31
41250;BME280;26984;59.928;30.306;2023-04-09T00:42:15;102444.72;;;4.49;64.26
41250;BME280;26984;59.928;30.306;2023-04-09T00:44:43;102440.94;;;4.52;64.01
41250;BME280;26984;59.928;30.306;2023-04-09T00:47:11;102447.09;;;4.73;63.07
41250;BME280;26984;59.928;30.306;2023-04-09T00:49:38;102445.78;;;4.68;62.85
41250;BME280;26984;59.928;30.306;2023-04-09T00:52:07;102444.41;;;4.73;62.39
41250;BME280;26984;59.928;30.306;2023-04-09T00:54:35;102442.44;;;4.75;62.39
41250;BME280;26984;59.928;30.306;2023-04-09T00:57:02;102444.69;;;4.70;61.96
41250;BME280;26984;59.928;30.306;2023-04-09T00:59:30;102447.78;;;4.75;61.41
41250;BME280;26984;59.928;30.306;2023-04-09T01:01:58;102448.59;;;4.66;61.73
41250;BME280;26984;59.928;30.306;2023-04-09T01:04:26;102438.69;;;4.57;61.12
41250;BME280;26984;59.928;30.306;2023-04-09T01:06:54;102440.34;;;4.48;61.16
41250;BME280;26984;59.928;30.306;2023-04-09T01:09:27;102435.72;;;4.50;62.22
41250;BME280;26984;59.928;30.306;2023-04-09T01:11:59;102435.13;;;4.47;61.91
41250;BME280;26984;59.928;30.306;2023-04-09T01:14:31;102441.47;;;4.46;61.49
41250;BME280;26984;59.928;30.306;2023-04-09T01:17:05;102445.81;;;4.47;61.91
41250;BME280;26984;59.928;30.306;2023-04-09T01:19:41;102447.78;;;4.45;61.59
41250;BME280;26984;59.928;30.306;2023-04-09T01:22:13;102446.78;;;4.46;60.98
41250;BME280;26984;59.928;30.306;2023-04-09T01:24:50;102447.06;;;4.43;61.35
41250;BME280;26984;59.928;30.306;2023-04-09T01:27:28;102443.41;;;4.44;61.07
41250;BME280;26984;59.928;30.306;2023-04-09T01:30:02;102439.88;;;4.43;61.08
41250;BME280;26984;59.928;30.306;2023-04-09T01:32:31;102438.13;;;4.32;61.13
41250;BME280;26984;59.928;30.306;2023-04-09T01:35:01;102446.72;;;4.36;61.46
41250;BME280;26984;59.928;30.306;2023-04-09T01:37:30;102446.03;;;4.34;61.49
41250;BME280;26984;59.928;30.306;2023-04-09T01:39:58;102446.16;;;4.32;61.48
41250;BME280;26984;59.928;30.306;2023-04-09T01:42:26;102445.63;;;4.39;61.50
41250;BME280;26984;59.928;30.306;2023-04-09T01:44:55;102445.13;;;4.45;61.30
41250;BME280;26984;59.928;30.306;2023-04-09T01:47:24;102450.75;;;4.51;61.15
41250;BME280;26984;59.928;30.306;2023-04-09T01:49:52;102450.03;;;4.49;60.46
41250;BME280;26984;59.928;30.306;2023-04-09T01:52:20;102450.09;;;4.59;60.46
41250;BME280;26984;59.928;30.306;2023-04-09T01:54:47;102452.06;;;4.57;60.53
41250;BME280;26984;59.928;30.306;2023-04-09T01:57:15;102452.22;;;4.65;60.71
41250;BME280;26984;59.928;30.306;2023-04-09T01:59:42;102458.69;;;4.63;60.40
41250;BME280;26984;59.928;30.306;2023-04-09T02:02:11;102456.28;;;4.60;60.33
41250;BME280;26984;59.928;30.306;2023-04-09T02:04:45;102453.22;;;4.64;59.81
41250;BME280;26984;59.928;30.306;2023-04-09T02:07:14;102453.69;;;4.79;59.80
41250;BME280;26984;59.928;30.306;2023-04-09T02:09:45;102454.94;;;4.75;59.53
41250;BME280;26984;59.928;30.306;2023-04-09T02:12:15;102455.09;;;4.73;58.73
41250;BME280;26984;59.928;30.306;2023-04-09T02:14:44;102456.78;;;4.74;59.66
41250;BME280;26984;59.928;30.306;2023-04-09T02:17:12;102450.72;;;4.72;59.17
41250;BME280;26984;59.928;30.306;2023-04-09T02:19:40;102445.53;;;4.71;59.45
41250;BME280;26984;59.928;30.306;2023-04-09T02:22:10;102453.66;;;4.69;58.93
41250;BME280;26984;59.928;30.306;2023-04-09T02:24:37;102455.22;;;4.72;58.98
41250;BME280;26984;59.928;30.306;2023-04-09T02:27:05;102455.69;;;4.77;59.05
41250;BME280;26984;59.928;30.306;2023-04-09T02:29:33;102454.53;;;4.79;58.36
41250;BME280;26984;59.928;30.306;2023-04-09T02:32:00;102453.25;;;4.74;58.32
41250;BME280;26984;59.928;30.306;2023-04-09T02:34:28;102448.97;;;4.62;58.36
41250;BME280;26984;59.928;30.306;2023-04-09T02:36:56;102451.78;;;4.60;58.85
41250;BME280;26984;59.928;30.306;2023-04-09T02:39:25;102453.22;;;4.64;58.68
41250;BME280;26984;59.928;30.306;2023-04-09T02:41:52;102447.72;;;4.66;58.82
41250;BME280;26984;59.928;30.306;2023-04-09T02:44:20;102450.84;;;4.71;58.52
41250;BME280;26984;59.928;30.306;2023-04-09T02:46:49;102450.84;;;4.71;58.41
41250;BME280;26984;59.928;30.306;2023-04-09T02:49:17;102454.09;;;4.74;58.89
41250;BME280;26984;59.928;30.306;2023-04-09T02:51:44;102446.53;;;4.79;58.48
41250;BME280;26984;59.928;30.306;2023-04-09T02:54:12;102453.28;;;4.84;57.54
41250;BME280;26984;59.928;30.306;2023-04-09T02:56:41;102448.13;;;4.92;57.25
41250;BME280;26984;59.928;30.306;2023-04-09T02:59:08;102448.00;;;4.93;56.69
41250;BME280;26984;59.928;30.306;2023-04-09T03:01:36;102450.09;;;4.90;56.51
41250;BME280;26984;59.928;30.306;2023-04-09T03:04:03;102453.59;;;4.90;56.63
41250;BME280;26984;59.928;30.306;2023-04-09T03:06:31;102455.09;;;4.73;56.70
41250;BME280;26984;59.928;30.306;2023-04-09T03:08:59;102453.72;;;4.58;57.19
41250;BME280;26984;59.928;30.306;2023-04-09T03:11:26;102458.63;;;4.53;57.67
41250;BME280;26984;59.928;30.306;2023-04-09T03:13:55;102462.66;;;4.47;57.62
41250;BME280;26984;59.928;30.306;2023-04-09T03:16:23;102462.59;;;4.59;59.11
41250;BME280;26984;59.928;30.306;2023-04-09T03:18:51;102469.22;;;4.64;59.66
41250;BME280;26984;59.928;30.306;2023-04-09T03:21:18;102462.47;;;4.60;59.40
41250;BME280;26984;59.928;30.306;2023-04-09T03:23:48;102470.31;;;4.52;60.34
41250;BME280;26984;59.928;30.306;2023-04-09T03:26:16;102464.06;;;4.42;60.58
41250;BME280;26984;59.928;30.306;2023-04-09T03:28:48;102463.78;;;4.24;60.54
41250;BME280;26984;59.928;30.306;2023-04-09T03:31:17;102464.81;;;4.32;61.65
41250;BME280;26984;59.928;30.306;2023-04-09T03:33:46;102470.22;;;4.42;61.62
41250;BME280;26984;59.928;30.306;2023-04-09T03:36:13;102452.00;;;4.26;61.92
41250;BME280;26984;59.928;30.306;2023-04-09T03:38:55;102459.41;;;4.23;61.68
41250;BME280;26984;59.928;30.306;2023-04-09T03:41:30;102455.78;;;4.24;62.02
41250;BME280;26984;59.928;30.306;2023-04-09T03:44:02;102470.16;;;4.32;62.20
41250;BME280;26984;59.928;30.306;2023-04-09T03:46:38;102466.31;;;4.46;61.05
41250;BME280;26984;59.928;30.306;2023-04-09T03:49:07;102460.06;;;4.57;60.94
41250;BME280;26984;59.928;30.306;2023-04-09T03:51:39;102466.88;;;4.71;60.47
41250;BME280;26984;59.928;30.306;2023-04-09T03:54:07;102459.50;;;4.84;60.09
41250;BME280;26984;59.928;30.306;2023-04-09T03:56:35;102463.75;;;4.96;59.76
41250;BME280;26984;59.928;30.306;2023-04-09T03:59:06;102468.16;;;5.07;60.03
41250;BME280;26984;59.928;30.306;2023-04-09T04:01:40;102466.09;;;5.20;59.61
41250;BME280;26984;59.928;30.306;2023-04-09T04:04:08;102464.88;;;5.34;59.03
41250;BME280;26984;59.928;30.306;2023-04-09T04:06:47;102467.25;;;5.47;58.78
41250;BME280;26984;59.928;30.306;2023-04-09T04:09:20;102470.53;;;5.60;57.91
41250;BME280;26984;59.928;30.306;2023-04-09T04:11:57;102468.56;;;5.62;57.70
41250;BME280;26984;59.928;30.306;2023-04-09T04:14:36;102466.47;;;5.66;57.25
41250;BME280;26984;59.928;30.306;2023-04-09T04:17:15;102468.44;;;5.73;56.62
41250;BME280;26984;59.928;30.306;2023-04-09T04:19:44;102478.16;;;5.74;56.54
41250;BME280;26984;59.928;30.306;2023-04-09T04:22:11;102477.59;;;5.81;56.27
41250;BME280;26984;59.928;30.306;2023-04-09T04:24:42;102470.13;;;5.84;55.83
41250;BME280;26984;59.928;30.306;2023-04-09T04:27:14;102464.53;;;5.97;55.13
41250;BME280;26984;59.928;30.306;2023-04-09T04:29:41;102474.66;;;6.03;54.85
41250;BME280;26984;59.928;30.306;2023-04-09T04:32:27;102476.91;;;6.17;54.36
41250;BME280;26984;59.928;30.306;2023-04-09T04:34:56;102472.41;;;6.28;54.27
41250;BME280;26984;59.928;30.306;2023-04-09T04:37:25;102477.31;;;6.42;52.89
41250;BME280;26984;59.928;30.306;2023-04-09T04:39:59;102469.53;;;6.48;52.49
41250;BME280;26984;59.928;30.306;2023-04-09T04:42:29;102477.84;;;6.45;52.75
41250;BME280;26984;59.928;30.306;2023-04-09T04:44:59;102476.72;;;6.48;52.53
41250;BME280;26984;59.928;30.306;2023-04-09T04:47:48;102471.31;;;6.58;51.51
41250;BME280;26984;59.928;30.306;2023-04-09T04:50:15;102471.19;;;6.59;52.17
41250;BME280;26984;59.928;30.306;2023-04-09T04:52:57;102471.59;;;6.64;52.08
41250;BME280;26984;59.928;30.306;2023-04-09T04:55:28;102469.19;;;6.71;51.40
41250;BME280;26984;59.928;30.306;2023-04-09T04:57:56;102465.78;;;6.79;51.60
41250;BME280;26984;59.928;30.306;2023-04-09T05:00:27;102464.34;;;6.84;51.15
41250;BME280;26984;59.928;30.306;2023-04-09T05:03:01;102473.03;;;6.96;50.91
41250;BME280;26984;59.928;30.306;2023-04-09T05:05:51;102475.97;;;7.03;50.61
41250;BME280;26984;59.928;30.306;2023-04-09T05:08:19;102471.91;;;6.99;50.92
41250;BME280;26984;59.928;30.306;2023-04-09T05:10:50;102475.81;;;7.04;50.33
41250;BME280;26984;59.928;30.306;2023-04-09T05:13:21;102479.59;;;7.11;50.14
41250;BME280;26984;59.928;30.306;2023-04-09T05:15:51;102483.53;;;7.17;49.76
41250;BME280;26984;59.928;30.306;2023-04-09T05:18:20;102475.19;;;7.20;49.62
41250;BME280;26984;59.928;30.306;2023-04-09T05:20:48;102490.81;;;7.25;49.91
41250;BME280;26984;59.928;30.306;2023-04-09T05:23:17;102483.19;;;7.30;49.43
41250;BME280;26984;59.928;30.306;2023-04-09T05:25:47;102481.88;;;7.34;49.48
41250;BME280;26984;59.928;30.306;2023-04-09T05:28:23;102489.72;;;7.45;49.58
41250;BME280;26984;59.928;30.306;2023-04-09T05:31:02;102491.06;;;7.59;49.13
41250;BME280;26984;59.928;30.306;2023-04-09T05:33:32;102490.00;;;7.70;49.38
41250;BME280;26984;59.928;30.306;2023-04-09T05:36:05;102493.44;;;7.80;48.49
41250;BME280;26984;59.928;30.306;2023-04-09T05:38:34;102492.69;;;7.87;47.89
41250;BME280;26984;59.928;30.306;2023-04-09T05:41:02;102493.69;;;7.86;48.18
41250;BME280;26984;59.928;30.306;2023-04-09T05:43:33;102497.88;;;7.89;48.16
41250;BME280;26984;59.928;30.306;2023-04-09T05:46:01;102496.28;;;7.96;47.95
41250;BME280;26984;59.928;30.306;2023-04-09T05:48:28;102501.41;;;8.07;47.99
41250;BME280;26984;59.928;30.306;2023-04-09T05:50:58;102499.78;;;8.14;47.07
41250;BME280;26984;59.928;30.306;2023-04-09T05:53:26;102495.88;;;8.27;46.77
41250;BME280;26984;59.928;30.306;2023-04-09T05:55:54;102495.66;;;8.20;46.58
41250;BME280;26984;59.928;30.306;2023-04-09T05:58:27;102497.56;;;8.28;47.13
41250;BME280;26984;59.928;30.306;2023-04-09T06:00:56;102507.38;;;8.37;46.44
41250;BME280;26984;59.928;30.306;2023-04-09T06:03:23;102504.94;;;8.44;46.69
41250;BME280;26984;59.928;30.306;2023-04-09T06:05:53;102503.63;;;8.48;45.94
41250;BME280;26984;59.928;30.306;2023-04-09T06:08:21;102509.13;;;8.46;45.32
41250;BME280;26984;59.928;30.306;2023-04-09T06:10:49;102499.56;;;8.44;46.28
41250;BME280;26984;59.928;30.306;2023-04-09T06:13:17;102509.31;;;8.45;45.91
41250;BME280;26984;59.928;30.306;2023-04-09T06:15:45;102511.53;;;8.49;46.35
41250;BME280;26984;59.928;30.306;2023-04-09T06:18:14;102507.59;;;8.61;46.09
41250;BME280;26984;59.928;30.306;2023-04-09T06:20:42;102512.16;;;8.69;45.18
41250;BME280;26984;59.928;30.306;2023-04-09T06:23:09;102522.81;;;8.79;44.21
41250;BME280;26984;59.928;30.306;2023-04-09T06:25:39;102520.97;;;8.79;44.65
41250;BME280;26984;59.928;30.306;2023-04-09T06:28:06;102521.53;;;8.91;44.58
41250;BME280;26984;59.928;30.306;2023-04-09T06:30:34;102522.09;;;9.03;44.98
41250;BME280;26984;59.928;30.306;2023-04-09T06:33:01;102529.34;;;9.10;44.68
41250;BME280;26984;59.928;30.306;2023-04-09T06:35:29;102532.94;;;9.19;43.87
41250;BME280;26984;59.928;30.306;2023-04-09T06:37:57;102527.41;;;9.21;42.97
41250;BME280;26984;59.928;30.306;2023-04-09T06:40:25;102537.19;;;9.30;43.58
41250;BME280;26984;59.928;30.306;2023-04-09T06:42:54;102532.88;;;9.37;43.29
41250;BME280;26984;59.928;30.306;2023-04-09T06:45:28;102534.22;;;9.41;42.93
41250;BME280;26984;59.928;30.306;2023-04-09T06:47:56;102536.59;;;9.44;42.47
41250;BME280;26984;59.928;30.306;2023-04-09T06:50:23;102541.47;;;9.49;43.33
41250;BME280;26984;59.928;30.306;2023-04-09T06:52:51;102534.81;;;9.61;43.25
41250;BME280;26984;59.928;30.306;2023-04-09T06:55:19;102540.72;;;9.73;43.08
41250;BME280;26984;59.928;30.306;2023-04-09T06:57:49;102543.47;;;9.89;42.96
41250;BME280;26984;59.928;30.306;2023-04-09T07:00:18;102542.13;;;10.01;42.94
41250;BME280;26984;59.928;30.306;2023-04-09T07:02:48;102550.06;;;10.19;42.29
41250;BME280;26984;59.928;30.306;2023-04-09T07:05:17;102554.81;;;10.34;42.40
41250;BME280;26984;59.928;30.306;2023-04-09T07:07:45;102553.28;;;10.47;42.40
41250;BME280;26984;59.928;30.306;2023-04-09T07:10:13;102551.78;;;10.61;41.57
41250;BME280;26984;59.928;30.306;2023-04-09T07:12:40;102554.28;;;10.63;41.85
41250;BME280;26984;59.928;30.306;2023-04-09T07:15:08;102552.28;;;10.65;40.78
41250;BME280;26984;59.928;30.306;2023-04-09T07:17:37;102555.16;;;10.71;40.27
41250;BME280;26984;59.928;30.306;2023-04-09T07:20:04;102552.81;;;10.60;41.06
41250;BME280;26984;59.928;30.306;2023-04-09T07:22:32;102564.22;;;10.62;40.90
41250;BME280;26984;59.928;30.306;2023-04-09T07:24:59;102561.72;;;10.69;40.21
41250;BME280;26984;59.928;30.306;2023-04-09T07:27:27;102549.59;;;10.65;40.32
41250;BME280;26984;59.928;30.306;2023-04-09T07:29:55;102553.59;;;10.77;40.31
41250;BME280;26984;59.928;30.306;2023-04-09T07:32:23;102551.91;;;10.84;40.34
41250;BME280;26984;59.928;30.306;2023-04-09T07:34:52;102558.44;;;10.98;39.90
41250;BME280;26984;59.928;30.306;2023-04-09T07:37:19;102554.75;;;11.07;39.73
41250;BME280;26984;59.928;30.306;2023-04-09T07:39:47;102558.44;;;11.14;39.79
41250;BME280;26984;59.928;30.306;2023-04-09T07:42:16;102562.59;;;11.17;39.25
41250;BME280;26984;59.928;30.306;2023-04-09T07:44:43;102556.91;;;11.12;38.99
41250;BME280;26984;59.928;30.306;2023-04-09T07:47:12;102557.72;;;11.20;38.93
41250;BME280;26984;59.928;30.306;2023-04-09T07:49:39;102552.13;;;11.30;39.18
41250;BME280;26984;59.928;30.306;2023-04-09T07:52:08;102557.81;;;11.43;38.55
41250;BME280;26984;59.928;30.306;2023-04-09T07:54:36;102558.84;;;11.42;38.46
41250;BME280;26984;59.928;30.306;2023-04-09T07:57:03;102566.69;;;11.60;39.06
41250;BME280;26984;59.928;30.306;2023-04-09T07:59:31;102565.75;;;11.76;38.94
41250;BME280;26984;59.928;30.306;2023-04-09T08:01:59;102562.81;;;11.94;39.01
41250;BME280;26984;59.928;30.306;2023-04-09T08:04:26;102559.47;;;12.15;37.92
41250;BME280;26984;59.928;30.306;2023-04-09T08:06:54;102561.75;;;12.26;36.52
41250;BME280;26984;59.928;30.306;2023-04-09T08:09:23;102552.56;;;12.12;36.12
41250;BME280;26984;59.928;30.306;2023-04-09T08:11:50;102557.19;;;12.04;37.80
41250;BME280;26984;59.928;30.306;2023-04-09T08:14:18;102552.38;;;12.14;36.91
41250;BME280;26984;59.928;30.306;2023-04-09T08:16:46;102553.34;;;12.21;36.70
41250;BME280;26984;59.928;30.306;2023-04-09T08:19:14;102553.94;;;12.31;35.43
41250;BME280;26984;59.928;30.306;2023-04-09T08:21:42;102552.56;;;12.35;35.66
41250;BME280;26984;59.928;30.306;2023-04-09T08:24:11;102553.69;;;12.41;35.33
41250;BME280;26984;59.928;30.306;2023-04-09T08:26:40;102552.28;;;12.45;35.81
41250;BME280;26984;59.928;30.306;2023-04-09T08:29:08;102557.09;;;12.58;35.50
41250;BME280;26984;59.928;30.306;2023-04-09T08:31:36;102549.94;;;12.65;35.62
41250;BME280;26984;59.928;30.306;2023-04-09T08:34:04;102549.22;;;12.71;35.60
41250;BME280;26984;59.928;30.306;2023-04-09T08:36:32;102543.72;;;12.79;34.78
41250;BME280;26984;59.928;30.306;2023-04-09T08:39:00;102548.94;;;12.81;35.52
41250;BME280;26984;59.928;30.306;2023-04-09T08:41:27;102550.53;;;12.90;34.97
41250;BME280;26984;59.928;30.306;2023-04-09T08:43:57;102553.91;;;12.92;34.01
41250;BME280;26984;59.928;30.306;2023-04-09T08:46:24;102551.84;;;12.94;34.78
41250;BME280;26984;59.928;30.306;2023-04-09T08:48:52;102553.34;;;12.97;33.89
41250;BME280;26984;59.928;30.306;2023-04-09T08:51:20;102554.84;;;12.84;33.92
41250;BME280;26984;59.928;30.306;2023-04-09T08:53:48;102550.63;;;12.82;34.65
41250;BME280;26984;59.928;30.306;2023-04-09T08:56:18;102553.25;;;12.90;34.36
41250;BME280;26984;59.928;30.306;2023-04-09T08:58:46;102551.00;;;12.93;34.86
41250;BME280;26984;59.928;30.306;2023-04-09T09:01:19;102556.50;;;13.00;34.30
41250;BME280;26984;59.928;30.306;2023-04-09T09:03:55;102555.22;;;13.11;34.85
41250;BME280;26984;59.928;30.306;2023-04-09T09:06:23;102551.50;;;13.27;34.06
41250;BME280;26984;59.928;30.306;2023-04-09T09:09:02;102551.97;;;13.30;33.54
41250;BME280;26984;59.928;30.306;2023-04-09T09:11:30;102550.38;;;13.36;33.52
41250;BME280;26984;59.928;30.306;2023-04-09T09:13:58;102552.59;;;13.47;33.79
41250;BME280;26984;59.928;30.306;2023-04-09T09:16:27;102552.56;;;13.62;32.99
41250;BME280;26984;59.928;30.306;2023-04-09T09:18:54;102552.13;;;13.73;33.41
41250;BME280;26984;59.928;30.306;2023-04-09T09:21:22;102550.41;;;13.72;31.82
41250;BME280;26984;59.928;30.306;2023-04-09T09:23:49;102559.22;;;13.45;34.86
41250;BME280;26984;59.928;30.306;2023-04-09T09:26:17;102560.03;;;12.71;37.49
41250;BME280;26984;59.928;30.306;2023-04-09T09:28:46;102558.41;;;12.24;38.85
41250;BME280;26984;59.928;30.306;2023-04-09T09:31:14;102567.44;;;11.85;39.30
41250;BME280;26984;59.928;30.306;2023-04-09T09:33:43;102565.91;;;11.43;40.02
41250;BME280;26984;59.928;30.306;2023-04-09T09:36:11;102568.16;;;11.23;41.35
41250;BME280;26984;59.928;30.306;2023-04-09T09:38:49;102570.59;;;11.10;41.98
41250;BME280;26984;59.928;30.306;2023-04-09T09:41:18;102565.69;;;11.06;42.10
41250;BME280;26984;59.928;30.306;2023-04-09T09:43:45;102570.56;;;11.02;42.19
41250;BME280;26984;59.928;30.306;2023-04-09T09:46:13;102561.50;;;11.03;42.40
41250;BME280;26984;59.928;30.306;2023-04-09T09:48:41;102568.88;;;11.09;43.26
41250;BME280;26984;59.928;30.306;2023-04-09T09:51:10;102572.47;;;10.85;43.08
41250;BME280;26984;59.928;30.306;2023-04-09T09:53:38;102568.28;;;10.58;44.32
41250;BME280;26984;59.928;30.306;2023-04-09T09:56:09;102557.50;;;10.34;44.51
41250;BME280;26984;59.928;30.306;2023-04-09T09:58:39;102558.88;;;10.46;44.90
41250;BME280;26984;59.928;30.306;2023-04-09T10:01:08;102564.59;;;10.67;45.03
41250;BME280;26984;59.928;30.306;2023-04-09T10:03:37;102563.88;;;10.90;44.30
41250;BME280;26984;59.928;30.306;2023-04-09T10:06:05;102562.63;;;11.09;42.07
41250;BME280;26984;59.928;30.306;2023-04-09T10:08:35;102561.13;;;11.14;41.74
41250;BME280;26984;59.928;30.306;2023-04-09T10:11:03;102564.47;;;11.16;42.16
41250;BME280;26984;59.928;30.306;2023-04-09T10:13:32;102570.97;;;11.46;38.61
41250;BME280;26984;59.928;30.306;2023-04-09T10:16:00;102563.63;;;11.63;37.41
41250;BME280;26984;59.928;30.306;2023-04-09T10:18:28;102565.69;;;11.92;36.87
41250;BME280;26984;59.928;30.306;2023-04-09T10:20:58;102563.25;;;12.29;35.59
41250;BME280;26984;59.928;30.306;2023-04-09T10:23:31;102563.41;;;12.50;35.69
41250;BME280;26984;59.928;30.306;2023-04-09T10:26:00;102565.31;;;12.64;34.59
41250;BME280;26984;59.928;30.306;2023-04-09T10:28:27;102558.06;;;12.80;34.76
41250;BME280;26984;59.928;30.306;2023-04-09T10:30:56;102565.00;;;12.97;33.51
41250;BME280;26984;59.928;30.306;2023-04-09T10:33:24;102563.22;;;13.04;33.96
41250;BME280;26984;59.928;30.306;2023-04-09T10:35:53;102562.53;;;13.25;34.59
41250;BME280;26984;59.928;30.306;2023-04-09T10:38:33;102560.34;;;13.50;34.29
41250;BME280;26984;59.928;30.306;2023-04-09T10:41:07;102558.53;;;13.72;33.24
41250;BME280;26984;59.928;30.306;2023-04-09T10:43:34;102568.50;;;13.86;33.32
41250;BME280;26984;59.928;30.306;2023-04-09T10:46:06;102562.84;;;14.03;33.68
41250;BME280;26984;59.928;30.306;2023-04-09T10:48:34;102567.97;;;14.12;31.98
41250;BME280;26984;59.928;30.306;2023-04-09T10:51:01;102559.38;;;14.09;31.43
41250;BME280;26984;59.928;30.306;2023-04-09T10:53:31;102564.66;;;14.17;31.02
41250;BME280;26984;59.928;30.306;2023-04-09T10:55:59;102567.97;;;14.12;31.53
41250;BME280;26984;59.928;30.306;2023-04-09T10:58:28;102567.69;;;14.07;31.74
41250;BME280;26984;59.928;30.306;2023-04-09T11:00:56;102571.50;;;14.13;30.67
41250;BME280;26984;59.928;30.306;2023-04-09T11:03:27;102572.56;;;13.97;30.65
41250;BME280;26984;59.928;30.306;2023-04-09T11:06:00;102571.75;;;13.97;31.18
41250;BME280;26984;59.928;30.306;2023-04-09T11:08:28;102569.78;;;14.05;31.19
41250;BME280;26984;59.928;30.306;2023-04-09T11:10:56;102568.97;;;14.11;30.57
41250;BME280;26984;59.928;30.306;2023-04-09T11:13:26;102569.81;;;14.12;29.90
41250;BME280;26984;59.928;30.306;2023-04-09T11:15:55;102570.91;;;13.96;30.13
41250;BME280;26984;59.928;30.306;2023-04-09T11:18:24;102567.09;;;13.90;30.48
41250;BME280;26984;59.928;30.306;2023-04-09T11:20:55;102571.41;;;13.85;30.41
41250;BME280;26984;59.928;30.306;2023-04-09T11:23:23;102576.06;;;13.91;30.02
41250;BME280;26984;59.928;30.306;2023-04-09T11:25:51;102570.84;;;13.89;30.15
41250;BME280;26984;59.928;30.306;2023-04-09T11:28:18;102576.38;;;13.81;30.08
41250;BME280;26984;59.928;30.306;2023-04-09T11:30:46;102576.88;;;13.70;29.57
41250;BME280;26984;59.928;30.306;2023-04-09T11:33:17;102579.13;;;13.67;29.70
41250;BME280;26984;59.928;30.306;2023-04-09T11:35:45;102575.94;;;13.63;30.36
41250;BME280;26984;59.928;30.306;2023-04-09T11:38:12;102583.75;;;13.73;29.84
41250;BME280;26984;59.928;30.306;2023-04-09T11:40:40;102582.75;;;13.74;29.33
41250;BME280;26984;59.928;30.306;2023-04-09T11:43:12;102579.75;;;13.69;29.33
41250;BME280;26984;59.928;30.306;2023-04-09T11:45:41;102579.00;;;13.75;29.45
41250;BME280;26984;59.928;30.306;2023-04-09T11:48:09;102581.50;;;13.76;28.97
41250;BME280;26984;59.928;30.306;2023-04-09T11:50:38;102581.50;;;13.76;29.40
41250;BME280;26984;59.928;30.306;2023-04-09T11:53:16;102578.41;;;13.79;29.76
41250;BME280;26984;59.928;30.306;2023-04-09T11:55:45;102577.00;;;13.83;29.03
41250;BME280;26984;59.928;30.306;2023-04-09T11:58:13;102573.53;;;13.89;29.23
41250;BME280;26984;59.928;30.306;2023-04-09T12:00:40;102582.44;;;14.05;28.90
41250;BME280;26984;59.928;30.306;2023-04-09T12:03:08;102576.94;;;14.13;28.29
41250;BME280;26984;59.928;30.306;2023-04-09T12:05:37;102576.19;;;14.04;28.21
41250;BME280;26984;59.928;30.306;2023-04-09T12:08:06;102575.66;;;13.94;28.13
41250;BME280;26984;59.928;30.306;2023-04-09T12:10:34;102573.47;;;13.83;28.70
41250;BME280;26984;59.928;30.306;2023-04-09T12:13:04;102572.44;;;13.84;29.45
41250;BME280;26984;59.928;30.306;2023-04-09T12:15:32;102578.19;;;13.96;28.62
41250;BME280;26984;59.928;30.306;2023-04-09T12:18:00;102574.56;;;13.88;28.65
41250;BME280;26984;59.928;30.306;2023-04-09T12:20:29;102577.91;;;13.90;29.01
41250;BME280;26984;59.928;30.306;2023-04-09T12:22:58;102577.66;;;13.85;28.73
41250;BME280;26984;59.928;30.306;2023-04-09T12:25:27;102575.34;;;13.82;29.29
41250;BME280;26984;59.928;30.306;2023-04-09T12:27:54;102572.69;;;13.89;30.20
41250;BME280;26984;59.928;30.306;2023-04-09T12:30:21;102572.84;;;14.02;29.52
41250;BME280;26984;59.928;30.306;2023-04-09T12:32:49;102576.41;;;14.03;28.49
41250;BME280;26984;59.928;30.306;2023-04-09T12:35:16;102573.63;;;13.96;28.76
41250;BME280;26984;59.928;30.306;2023-04-09T12:37:44;102577.91;;;13.90;28.45
41250;BME280;26984;59.928;30.306;2023-04-09T12:40:13;102580.16;;;13.87;28.69
41250;BME280;26984;59.928;30.306;2023-04-09T12:42:41;102571.06;;;13.73;28.90
41250;BME280;26984;59.928;30.306;2023-04-09T12:45:09;102575.34;;;13.82;29.32
41250;BME280;26984;59.928;30.306;2023-04-09T12:47:37;102579.13;;;14.03;29.87
41250;BME280;26984;59.928;30.306;2023-04-09T12:50:06;102582.00;;;14.23;29.38
41250;BME280;26984;59.928;30.306;2023-04-09T12:52:34;102574.84;;;14.36;28.08
41250;BME280;26984;59.928;30.306;2023-04-09T12:55:02;102581.47;;;14.27;27.76